createdAt,value
2018-09-15T00:00:36.664Z,7.40
2018-09-15T00:03:03.575Z,8.00
2018-09-15T00:05:30.480Z,10.90
2018-09-15T00:07:57.412Z,8.10
2018-09-15T00:10:24.354Z,8.23
2018-09-15T00:12:51.286Z,9.57
2018-09-15T00:15:18.204Z,8.30
2018-09-15T00:17:46.414Z,6.07
2018-09-15T00:20:13.330Z,8.43
2018-09-15T00:22:40.218Z,8.17
2018-09-15T00:25:07.180Z,10.17
2018-09-15T00:27:34.090Z,6.10
2018-09-15T00:30:01.010Z,8.80
2018-09-15T00:32:27.933Z,5.63
2018-09-15T00:34:54.859Z,7.63
2018-09-15T00:37:21.771Z,8.67
2018-09-15T00:39:48.677Z,7.67
2018-09-15T00:42:15.598Z,7.87
2018-09-15T00:44:42.508Z,8.83
2018-09-15T00:47:09.421Z,6.90
2018-09-15T00:49:36.377Z,7.87
2018-09-15T00:52:03.527Z,7.70
2018-09-15T00:54:30.485Z,7.40
2018-09-15T00:56:57.413Z,7.53
2018-09-15T00:59:24.330Z,5.53
2018-09-15T01:01:51.257Z,7.27
2018-09-15T01:04:18.192Z,12.87
2018-09-15T01:06:45.108Z,6.70
2018-09-15T01:09:12.028Z,6.00
2018-09-15T01:11:38.953Z,8.27
2018-09-15T01:14:05.962Z,4.73
2018-09-15T01:16:32.857Z,10.80
2018-09-15T01:18:59.752Z,6.03
2018-09-15T01:21:26.672Z,8.47
2018-09-15T01:23:53.584Z,9.70
2018-09-15T01:26:20.510Z,6.67
2018-09-15T01:28:49.979Z,7.83
2018-09-15T01:31:17.248Z,7.23
2018-09-15T01:33:44.145Z,8.43
2018-09-15T01:36:11.069Z,7.30
2018-09-15T01:38:37.968Z,8.97
2018-09-15T01:41:04.905Z,9.47
2018-09-15T01:43:31.813Z,5.87
2018-09-15T01:45:58.718Z,10.23
2018-09-15T01:48:25.612Z,6.33
2018-09-15T01:50:52.520Z,8.30
2018-09-15T01:53:19.453Z,7.63
2018-09-15T01:55:46.410Z,8.13
2018-09-15T01:58:13.276Z,7.97
2018-09-15T02:00:40.730Z,11.47
2018-09-15T02:03:07.636Z,8.90
2018-09-15T02:05:34.552Z,7.77
2018-09-15T02:08:01.479Z,9.47
2018-09-15T02:10:28.383Z,7.03
2018-09-15T02:12:55.277Z,7.73
2018-09-15T02:15:22.268Z,9.93
2018-09-15T02:17:49.176Z,8.47
2018-09-15T02:20:16.087Z,7.27
2018-09-15T02:22:43.054Z,7.87
2018-09-15T02:25:09.957Z,7.27
2018-09-15T02:27:36.856Z,8.40
2018-09-15T02:30:03.800Z,6.00
2018-09-15T02:32:30.705Z,8.77
2018-09-15T02:34:57.637Z,6.23
2018-09-15T02:37:24.553Z,10.33
2018-09-15T02:39:51.452Z,6.73
2018-09-15T02:42:18.358Z,7.50
2018-09-15T02:44:45.272Z,6.20
2018-09-15T02:47:12.399Z,7.97
2018-09-15T02:49:39.316Z,7.40
2018-09-15T02:52:06.271Z,8.50
2018-09-15T02:54:33.185Z,8.27
2018-09-15T02:57:00.094Z,5.97
2018-09-15T02:59:26.996Z,7.40
2018-09-15T03:01:53.940Z,9.57
2018-09-15T03:04:20.809Z,8.10
2018-09-15T03:06:47.700Z,8.37
2018-09-15T03:09:14.573Z,8.27
2018-09-15T03:11:41.496Z,7.40
2018-09-15T03:14:08.602Z,5.30
2018-09-15T03:16:35.753Z,6.50
2018-09-15T03:19:02.670Z,9.13
2018-09-15T03:21:29.588Z,6.33
2018-09-15T03:23:56.453Z,6.47
2018-09-15T03:26:24.148Z,8.27
2018-09-15T03:28:51.070Z,5.23
2018-09-15T03:31:17.973Z,5.10
2018-09-15T03:33:44.865Z,6.20
2018-09-15T03:36:11.786Z,5.97
2018-09-15T03:38:38.668Z,8.20
2018-09-15T03:41:05.783Z,7.80
2018-09-15T03:43:32.669Z,6.53
2018-09-15T03:45:59.589Z,5.33
2018-09-15T03:48:26.490Z,12.23
2018-09-15T03:50:53.390Z,7.53
2018-09-15T03:53:20.308Z,5.60
2018-09-15T03:55:47.197Z,6.77
2018-09-15T03:58:14.103Z,7.70
2018-09-15T04:00:41.000Z,10.10
2018-09-15T04:03:07.915Z,8.17
2018-09-15T04:05:34.859Z,9.27
2018-09-15T04:08:01.772Z,11.70
2018-09-15T04:10:28.679Z,7.73
2018-09-15T04:12:55.576Z,7.60
2018-09-15T04:15:22.473Z,7.30
2018-09-15T04:17:49.383Z,5.93
2018-09-15T04:20:16.297Z,8.83
2018-09-15T04:22:43.196Z,7.73
2018-09-15T04:25:10.084Z,8.50
2018-09-15T04:27:36.977Z,5.80
2018-09-15T04:30:04.224Z,6.83
2018-09-15T04:32:31.131Z,8.23
2018-09-15T04:34:58.017Z,9.97
2018-09-15T04:37:24.896Z,8.07
2018-09-15T04:39:51.784Z,6.83
2018-09-15T04:42:18.676Z,9.77
2018-09-15T04:44:45.561Z,8.70
2018-09-15T04:47:12.464Z,10.37
2018-09-15T04:49:39.375Z,8.97
2018-09-15T04:52:06.281Z,9.13
2018-09-15T04:54:33.176Z,8.43
2018-09-15T04:57:00.093Z,9.50
2018-09-15T04:59:26.990Z,10.07
2018-09-15T05:01:53.900Z,12.00
2018-09-15T05:04:20.785Z,14.17
2018-09-15T05:06:47.655Z,8.23
2018-09-15T05:09:14.576Z,10.10
2018-09-15T05:11:41.729Z,10.13
2018-09-15T05:14:08.632Z,12.43
2018-09-15T05:16:35.505Z,11.53
2018-09-15T05:19:02.392Z,9.90
2018-09-15T05:21:29.332Z,11.30
2018-09-15T05:23:56.225Z,10.93
2018-09-15T05:26:23.128Z,11.57
2018-09-15T05:28:50.065Z,11.73
2018-09-15T05:31:16.965Z,10.23
2018-09-15T05:33:43.881Z,10.53
2018-09-15T05:36:10.759Z,9.30
2018-09-15T05:38:37.670Z,12.47
2018-09-15T05:41:04.579Z,13.67
2018-09-15T05:43:31.495Z,13.60
2018-09-15T05:45:58.402Z,10.17
2018-09-15T05:48:25.285Z,12.77
2018-09-15T05:50:52.177Z,12.27
2018-09-15T05:53:19.080Z,12.30
2018-09-15T05:55:45.976Z,12.20
2018-09-15T05:58:12.909Z,12.00
2018-09-15T06:00:39.814Z,12.97
2018-09-15T06:03:06.733Z,12.50
2018-09-15T06:05:33.626Z,11.23
2018-09-15T06:08:00.536Z,11.80
2018-09-15T06:10:27.423Z,11.63
2018-09-15T06:12:54.345Z,12.53
2018-09-15T06:15:21.239Z,11.20
2018-09-15T06:17:48.145Z,12.70
2018-09-15T06:20:15.041Z,12.30
2018-09-15T06:22:41.968Z,12.53
2018-09-15T06:25:08.867Z,13.57
2018-09-15T06:27:35.776Z,14.93
2018-09-15T06:30:02.729Z,11.30
2018-09-15T06:32:29.659Z,13.50
2018-09-15T06:34:56.608Z,13.30
2018-09-15T06:37:23.509Z,11.40
2018-09-15T06:39:50.405Z,14.10
2018-09-15T06:42:17.325Z,10.63
2018-09-15T06:44:44.228Z,10.30
2018-09-15T06:47:11.123Z,12.83
2018-09-15T06:49:38.045Z,10.97
2018-09-15T06:52:04.941Z,10.93
2018-09-15T06:54:31.832Z,13.17
2018-09-15T06:56:58.732Z,12.43
2018-09-15T06:59:25.658Z,11.20
2018-09-15T07:01:52.540Z,12.30
2018-09-15T07:04:19.428Z,11.27
2018-09-15T07:06:46.328Z,14.90
2018-09-15T07:09:13.965Z,10.23
2018-09-15T07:11:40.874Z,12.00
2018-09-15T07:14:08.279Z,9.20
2018-09-15T07:16:35.207Z,10.30
2018-09-15T07:19:02.376Z,12.10
2018-09-15T07:21:29.334Z,9.07
2018-09-15T07:23:56.319Z,11.30
2018-09-15T07:26:23.212Z,12.53
2018-09-15T07:28:50.128Z,10.30
2018-09-15T07:31:17.085Z,10.80
2018-09-15T07:33:43.956Z,10.10
2018-09-15T07:36:10.900Z,10.03
2018-09-15T07:38:37.803Z,12.73
2018-09-15T07:41:04.696Z,9.33
2018-09-15T07:43:31.592Z,12.33
2018-09-15T07:45:58.500Z,11.07
2018-09-15T07:48:25.382Z,11.80
2018-09-15T07:50:52.276Z,10.27
2018-09-15T07:53:19.168Z,8.70
2018-09-15T07:55:46.068Z,10.00
2018-09-15T07:58:12.957Z,9.93
2018-09-15T08:00:39.856Z,14.30
2018-09-15T08:03:06.737Z,12.40
2018-09-15T08:05:33.628Z,10.73
2018-09-15T08:08:00.508Z,9.60
2018-09-15T08:10:27.429Z,12.33
2018-09-15T08:12:54.345Z,8.10
2018-09-15T08:15:21.900Z,10.73
2018-09-15T08:17:48.995Z,12.77
2018-09-15T08:20:15.959Z,12.67
2018-09-15T08:22:42.840Z,13.93
2018-09-15T08:25:10.328Z,14.83
2018-09-15T08:27:37.996Z,14.10
2018-09-15T08:30:04.961Z,22.30
2018-09-15T08:32:32.630Z,11.77
2018-09-15T08:34:59.548Z,13.90
2018-09-15T08:37:26.833Z,12.10
2018-09-15T08:39:54.578Z,9.93
2018-09-15T08:42:22.133Z,8.07
2018-09-15T08:44:51.349Z,10.03
2018-09-15T08:47:18.591Z,10.23
2018-09-15T08:49:45.472Z,9.47
2018-09-15T08:52:12.372Z,13.87
2018-09-15T08:54:39.701Z,12.40
2018-09-15T08:57:06.647Z,10.33
2018-09-15T08:59:33.677Z,12.07
2018-09-15T09:02:00.549Z,9.03
2018-09-15T09:04:28.143Z,14.13
2018-09-15T09:06:55.043Z,11.67
2018-09-15T09:09:22.392Z,10.77
2018-09-15T09:11:49.952Z,9.17
2018-09-15T09:14:17.108Z,12.17
2018-09-15T09:16:44.876Z,10.00
2018-09-15T09:19:12.794Z,15.63
2018-09-15T09:21:40.527Z,12.73
2018-09-15T09:24:07.416Z,12.70
2018-09-15T09:26:34.407Z,8.77
2018-09-15T09:29:01.316Z,8.73
2018-09-15T09:31:28.922Z,9.77
2018-09-15T09:33:55.892Z,11.07
2018-09-15T09:36:22.793Z,9.87
2018-09-15T09:38:49.749Z,11.77
2018-09-15T09:41:17.939Z,9.70
2018-09-15T09:43:46.514Z,10.37
2018-09-15T09:46:14.423Z,8.37
2018-09-15T09:48:41.304Z,8.83
2018-09-15T09:51:08.224Z,6.30
2018-09-15T09:53:35.477Z,6.00
2018-09-15T09:56:02.858Z,8.63
2018-09-15T09:58:30.491Z,8.10
2018-09-15T10:01:05.498Z,5.70
2018-09-15T10:03:32.595Z,7.07
2018-09-15T10:05:59.524Z,6.73
2018-09-15T10:08:26.618Z,6.07
2018-09-15T10:10:53.516Z,5.53
2018-09-15T10:13:23.623Z,7.43
2018-09-15T10:15:50.785Z,4.87
2018-09-15T10:18:17.709Z,6.67
2018-09-15T10:20:44.883Z,6.33
2018-09-15T10:23:11.843Z,6.03
2018-09-15T10:25:38.755Z,6.90
2018-09-15T10:28:05.709Z,5.37
2018-09-15T10:30:32.645Z,7.90
2018-09-15T10:32:59.976Z,6.80
2018-09-15T10:35:26.872Z,5.90
2018-09-15T10:37:53.784Z,6.73
2018-09-15T10:40:20.789Z,8.30
2018-09-15T10:42:47.671Z,5.73
2018-09-15T10:45:15.816Z,6.70
2018-09-15T10:47:42.748Z,7.53
2018-09-15T10:50:09.717Z,7.20
2018-09-15T10:52:36.631Z,8.03
2018-09-15T10:55:03.577Z,6.37
2018-09-15T10:57:30.684Z,6.97
2018-09-15T10:59:57.575Z,7.80
2018-09-15T11:02:24.560Z,7.13
2018-09-15T11:04:51.464Z,7.70
2018-09-15T11:07:18.469Z,11.33
2018-09-15T11:09:45.357Z,6.70
2018-09-15T11:12:12.264Z,5.63
2018-09-15T11:14:39.172Z,6.50
2018-09-15T11:17:06.433Z,10.03
2018-09-15T11:19:33.308Z,7.20
2018-09-15T11:22:00.532Z,10.93
2018-09-15T11:24:27.448Z,6.47
2018-09-15T11:26:54.721Z,4.37
2018-09-15T11:29:21.640Z,7.80
2018-09-15T11:31:48.937Z,7.80
2018-09-15T11:34:16.511Z,2.97
2018-09-15T11:36:44.042Z,3.27
2018-09-15T11:39:12.330Z,4.03
2018-09-15T11:41:40.128Z,7.00
2018-09-15T11:44:07.897Z,3.97
2018-09-15T11:46:41.133Z,6.37
2018-09-15T11:49:08.612Z,5.07
2018-09-15T11:51:36.239Z,4.93
2018-09-15T11:54:03.786Z,4.17
2018-09-15T11:56:30.700Z,4.87
2018-09-15T11:58:57.595Z,5.07
2018-09-15T12:01:24.508Z,7.53
2018-09-15T12:03:51.416Z,5.57
2018-09-15T12:06:18.324Z,5.70
2018-09-15T12:08:45.265Z,3.73
2018-09-15T12:11:12.161Z,4.93
2018-09-15T12:13:39.048Z,5.13
2018-09-15T12:16:06.209Z,4.50
2018-09-15T12:18:34.253Z,5.13
2018-09-15T12:21:01.170Z,5.17
2018-09-15T12:23:28.128Z,5.37
2018-09-15T12:25:55.028Z,6.90
2018-09-15T12:28:21.944Z,11.40
2018-09-15T12:30:48.852Z,5.80
2018-09-15T12:33:15.760Z,8.07
2018-09-15T12:35:42.739Z,6.10
2018-09-15T12:38:09.661Z,7.67
2018-09-15T12:40:36.551Z,8.40
2018-09-15T12:43:03.463Z,9.83
2018-09-15T12:45:30.385Z,7.23
2018-09-15T12:47:57.318Z,6.97
2018-09-15T12:50:24.232Z,7.70
2018-09-15T12:52:51.148Z,4.37
2018-09-15T12:55:18.064Z,3.77
2018-09-15T12:57:45.312Z,5.07
2018-09-15T13:00:12.218Z,6.53
2018-09-15T13:02:39.131Z,4.10
2018-09-15T13:05:06.026Z,3.57
2018-09-15T13:07:32.940Z,4.43
2018-09-15T13:09:59.853Z,5.13
2018-09-15T13:12:26.756Z,4.73
2018-09-15T13:14:53.657Z,5.93
2018-09-15T13:17:20.584Z,5.93
2018-09-15T13:19:47.496Z,4.40
2018-09-15T13:22:14.420Z,3.73
2018-09-15T13:24:41.328Z,3.67
2018-09-15T13:27:08.232Z,3.63
2018-09-15T13:29:35.199Z,4.83
2018-09-15T13:32:02.210Z,4.67
2018-09-15T13:34:29.136Z,5.77
2018-09-15T13:36:56.060Z,5.00
2018-09-15T13:39:23.024Z,5.60
2018-09-15T13:41:49.993Z,5.03
2018-09-15T13:44:16.906Z,5.17
2018-09-15T13:46:43.815Z,5.57
2018-09-15T13:49:10.753Z,5.40
2018-09-15T13:51:37.655Z,5.43
2018-09-15T13:54:04.577Z,7.80
2018-09-15T13:56:31.473Z,4.20
2018-09-15T13:58:58.411Z,5.80
2018-09-15T14:01:25.310Z,4.57
2018-09-15T14:03:52.227Z,3.97
2018-09-15T14:06:19.125Z,5.13
2018-09-15T14:08:46.040Z,5.30
2018-09-15T14:11:12.951Z,4.30
2018-09-15T14:13:39.868Z,3.50
2018-09-15T14:16:06.769Z,5.07
2018-09-15T14:18:33.678Z,4.00
2018-09-15T14:21:00.598Z,5.57
2018-09-15T14:23:27.530Z,4.90
2018-09-15T14:25:54.454Z,4.40
2018-09-15T14:28:21.444Z,3.07
2018-09-15T14:30:48.293Z,3.80
2018-09-15T14:33:15.201Z,3.07
2018-09-15T14:35:42.127Z,4.67
2018-09-15T14:38:09.020Z,5.07
2018-09-15T14:40:35.964Z,5.50
2018-09-15T14:43:02.845Z,4.53
2018-09-15T14:45:29.745Z,4.90
2018-09-15T14:47:56.648Z,3.90
2018-09-15T14:50:23.544Z,4.63
2018-09-15T14:52:50.424Z,7.33
2018-09-15T14:55:17.317Z,5.23
2018-09-15T14:57:44.188Z,3.50
2018-09-15T15:00:11.103Z,2.33
2018-09-15T15:02:38.047Z,6.47
2018-09-15T15:05:04.981Z,3.03
2018-09-15T15:07:31.910Z,3.77
2018-09-15T15:09:58.796Z,3.80
2018-09-15T15:12:25.664Z,3.93
2018-09-15T15:14:52.543Z,2.70
2018-09-15T15:17:19.434Z,1.87
2018-09-15T15:19:46.394Z,7.37
2018-09-15T15:22:13.213Z,5.13
2018-09-15T15:24:40.104Z,6.10
2018-09-15T15:27:07.016Z,2.93
2018-09-15T15:29:33.972Z,2.87
2018-09-15T15:32:00.904Z,5.37
2018-09-15T15:34:27.901Z,3.93
2018-09-15T15:36:54.781Z,3.67
2018-09-15T15:39:21.706Z,4.83
2018-09-15T15:41:48.627Z,3.33
2018-09-15T15:44:15.528Z,3.60
2018-09-15T15:46:42.419Z,3.27
2018-09-15T15:49:09.402Z,4.43
2018-09-15T15:51:36.414Z,6.20
2018-09-15T15:54:03.240Z,2.97
2018-09-15T15:56:30.124Z,3.27
2018-09-15T15:58:57.049Z,4.23
2018-09-15T16:01:23.956Z,4.13
2018-09-15T16:03:51.479Z,6.03
2018-09-15T16:06:24.010Z,6.27
2018-09-15T16:08:51.253Z,5.13
2018-09-15T16:11:18.357Z,7.40
2018-09-15T16:13:45.459Z,4.43
2018-09-15T16:16:12.347Z,4.13
2018-09-15T16:18:39.253Z,5.13
2018-09-15T16:21:06.184Z,6.00
2018-09-15T16:23:33.075Z,5.87
2018-09-15T16:26:00.028Z,6.00
2018-09-15T16:28:26.955Z,5.17
2018-09-15T16:30:53.881Z,5.47
2018-09-15T16:33:20.785Z,4.93
2018-09-15T16:35:47.726Z,5.63
2018-09-15T16:38:15.129Z,5.10
2018-09-15T16:40:42.141Z,5.77
2018-09-15T16:43:08.968Z,4.40
2018-09-15T16:45:35.869Z,6.23
2018-09-15T16:48:02.855Z,7.27
2018-09-15T16:50:29.785Z,6.30
2018-09-15T16:52:56.706Z,6.33
2018-09-15T16:55:23.626Z,5.40
2018-09-15T16:57:50.557Z,7.37
2018-09-15T17:00:17.478Z,6.47
2018-09-15T17:02:44.368Z,5.90
2018-09-15T17:05:11.269Z,8.73
2018-09-15T17:07:38.170Z,6.53
2018-09-15T17:10:05.151Z,7.03
2018-09-15T17:12:31.993Z,3.70
2018-09-15T17:14:58.903Z,3.83
2018-09-15T17:17:25.825Z,6.23
2018-09-15T17:19:52.742Z,4.10
2018-09-15T17:22:19.675Z,3.77
2018-09-15T17:24:46.542Z,9.03
2018-09-15T17:27:13.472Z,3.13
2018-09-15T17:29:40.356Z,6.37
2018-09-15T17:32:07.361Z,4.33
2018-09-15T17:34:34.248Z,6.60
2018-09-15T17:37:01.214Z,5.30
2018-09-15T17:39:28.043Z,6.77
2018-09-15T17:41:54.951Z,4.73
2018-09-15T17:44:21.823Z,5.30
2018-09-15T17:46:48.721Z,9.43
2018-09-15T17:49:15.606Z,4.73
2018-09-15T17:51:42.527Z,7.90
2018-09-15T17:54:09.470Z,4.50
2018-09-15T17:56:36.364Z,8.43
2018-09-15T17:59:03.285Z,6.07
2018-09-15T18:01:30.247Z,5.47
2018-09-15T18:03:57.137Z,4.73
2018-09-15T18:06:24.102Z,6.33
2018-09-15T18:08:51.711Z,4.90
2018-09-15T18:11:18.625Z,4.50
2018-09-15T18:13:45.556Z,4.57
2018-09-15T18:16:12.431Z,3.40
2018-09-15T18:18:39.321Z,4.57
2018-09-15T18:21:06.224Z,5.60
2018-09-15T18:23:33.122Z,4.13
2018-09-15T18:26:00.003Z,5.77
2018-09-15T18:28:26.888Z,6.63
2018-09-15T18:30:53.796Z,5.03
2018-09-15T18:33:20.688Z,4.27
2018-09-15T18:35:47.600Z,6.40
2018-09-15T18:38:14.509Z,7.20
2018-09-15T18:40:41.400Z,5.47
2018-09-15T18:43:08.301Z,5.63
2018-09-15T18:46:38.716Z,4.63
2018-09-15T18:49:05.620Z,6.70
2018-09-15T18:51:32.519Z,4.80
2018-09-15T18:53:59.423Z,3.87
2018-09-15T18:56:26.392Z,5.40
2018-09-15T18:58:53.245Z,6.77
2018-09-15T19:01:20.159Z,3.93
2018-09-15T19:03:47.059Z,5.30
2018-09-15T19:06:13.973Z,6.70
2018-09-15T19:08:40.977Z,4.37
2018-09-15T19:11:07.857Z,6.57
2018-09-15T19:13:34.761Z,5.30
2018-09-15T19:16:02.033Z,5.63
2018-09-15T19:18:28.932Z,3.77
2018-09-15T19:20:55.836Z,3.80
2018-09-15T19:23:22.741Z,4.23
2018-09-15T19:25:49.624Z,8.03
2018-09-15T19:28:16.540Z,7.07
2018-09-15T19:30:43.424Z,5.97
2018-09-15T19:33:10.288Z,3.30
2018-09-15T19:35:37.270Z,7.63
2018-09-15T19:38:04.236Z,9.13
2018-09-15T19:40:31.143Z,5.40
2018-09-15T19:42:58.026Z,5.20
2018-09-15T19:45:24.896Z,5.57
2018-09-15T19:47:52.160Z,7.90
2018-09-15T19:50:19.038Z,9.40
2018-09-15T19:52:45.939Z,6.23
2018-09-15T19:55:12.829Z,5.57
2018-09-15T19:57:39.713Z,6.00
2018-09-15T20:00:06.596Z,5.53
2018-09-15T20:02:34.050Z,5.63
2018-09-15T20:05:00.947Z,7.80
2018-09-15T20:07:27.804Z,6.40
2018-09-15T20:09:54.675Z,6.50
2018-09-15T20:12:21.559Z,5.87
2018-09-15T20:14:48.452Z,7.47
2018-09-15T20:17:14.460Z,5.57
2018-09-15T20:19:40.466Z,5.00
2018-09-15T20:22:07.361Z,5.57
2018-09-15T20:24:34.320Z,7.40
2018-09-15T20:27:01.192Z,7.87
2018-09-15T20:29:28.175Z,6.87
2018-09-15T20:31:55.050Z,6.27
2018-09-15T20:34:21.932Z,5.53
2018-09-15T20:36:48.828Z,7.77
2018-09-15T20:39:15.717Z,8.87
2018-09-15T20:41:42.629Z,11.23
2018-09-15T20:44:09.517Z,7.27
2018-09-15T20:46:36.433Z,8.20
2018-09-15T20:49:03.367Z,6.17
2018-09-15T20:51:30.245Z,7.67
2018-09-15T20:53:57.132Z,7.20
2018-09-15T20:56:24.008Z,7.80
2018-09-15T20:58:50.903Z,8.67
2018-09-15T21:01:17.800Z,9.50
2018-09-15T21:03:44.693Z,8.47
2018-09-15T21:06:11.613Z,12.27
2018-09-15T21:08:38.502Z,12.37
2018-09-15T21:11:05.405Z,6.97
2018-09-15T21:13:32.380Z,13.10
2018-09-15T21:15:59.384Z,12.93
2018-09-15T21:18:26.221Z,12.57
2018-09-15T21:20:53.097Z,12.47
2018-09-15T21:23:19.984Z,11.20
2018-09-15T21:25:46.928Z,10.67
2018-09-15T21:28:13.816Z,9.63
2018-09-15T21:30:40.729Z,10.90
2018-09-15T21:33:07.656Z,9.77
2018-09-15T21:35:34.535Z,10.57
2018-09-15T21:38:01.438Z,13.63
2018-09-15T21:40:28.361Z,15.10
2018-09-15T21:42:55.268Z,14.80
2018-09-15T21:45:22.164Z,10.77
2018-09-15T21:47:49.054Z,9.00
2018-09-15T21:50:15.964Z,12.70
2018-09-15T21:52:42.859Z,11.27
2018-09-15T21:55:09.768Z,10.73
2018-09-15T21:57:36.696Z,9.77
2018-09-15T22:00:05.917Z,8.83
2018-09-15T22:02:32.808Z,10.80
2018-09-15T22:04:59.788Z,10.53
2018-09-15T22:07:26.756Z,11.90
2018-09-15T22:10:00.384Z,11.77
2018-09-15T22:12:27.336Z,16.93
2018-09-15T22:14:54.238Z,9.90
2018-09-15T22:17:21.127Z,11.83
2018-09-15T22:19:48.024Z,7.43
2018-09-15T22:22:14.950Z,8.77
2018-09-15T22:24:41.840Z,8.93
2018-09-15T22:27:08.729Z,8.13
2018-09-15T22:29:35.620Z,11.57
2018-09-15T22:32:02.514Z,9.90
2018-09-15T22:34:29.399Z,8.03
2018-09-15T22:36:56.282Z,7.83
2018-09-15T22:39:23.171Z,7.83
2018-09-15T22:41:50.057Z,7.23
2018-09-15T22:44:16.931Z,7.67
2018-09-15T22:46:43.824Z,5.93
2018-09-15T22:49:10.712Z,7.57
2018-09-15T22:51:37.594Z,6.63
2018-09-15T22:54:04.508Z,7.03
2018-09-15T22:56:31.399Z,9.63
2018-09-15T22:58:58.288Z,7.77
2018-09-15T23:01:25.173Z,12.43
2018-09-15T23:03:56.669Z,9.30
2018-09-15T23:06:23.572Z,6.47
2018-09-15T23:08:50.468Z,5.80
2018-09-15T23:11:17.355Z,5.30
2018-09-15T23:13:44.246Z,7.10
2018-09-15T23:16:11.139Z,7.23
2018-09-15T23:18:38.024Z,11.27
2018-09-15T23:21:05.406Z,8.43
2018-09-15T23:23:32.272Z,6.97
2018-09-15T23:25:59.157Z,6.70
2018-09-15T23:28:26.077Z,6.50
2018-09-15T23:30:53.001Z,7.57
2018-09-15T23:33:19.888Z,3.53
2018-09-15T23:35:46.779Z,5.50
2018-09-15T23:38:13.673Z,5.73
2018-09-15T23:40:40.560Z,5.17
2018-09-15T23:43:07.452Z,5.00
2018-09-15T23:45:34.428Z,6.43
2018-09-15T23:48:01.320Z,7.70
2018-09-15T23:50:28.244Z,6.93
2018-09-15T23:52:55.144Z,5.10
2018-09-15T23:55:22.447Z,4.80
2018-09-15T23:57:49.333Z,8.83
